Thunder radar more information blitzortung!


Löydät sääaseman tiedot myös:

European Weather Network

Finland Weather Exchange

Weather Underground

AWEKAS



Weather Underground säähistoriasivu

Päivittäin yhteenveto Heinäkuu 16, 2017 Yksiköt:  Metriset    Englantilaiset   Molemmat
« Edellinen Päivä
Seuraava Päivä »
Päivittäin Viikoittain Kuukausittain Vuosittain Mukautettu
  Korkea: Matala: Keskiarvo:
Lämpötila: -17.8 °C -15.2 °C -9.1 °C
Kastepiste: -17.8 °C -15.7 °C -13.3 °C
Kosteus: Humidity % 40 % 64 %
Tuulen nopeus: 0 km/h 0 km/h 5.3 km/h
Tuulenpuuska: 0 km/h - -
Tuuli:- - SSW
Ilmanpaine: 0 hPa 34120.7 hPa -
Sade: 0 mm    
Historical Graphs
 
 
Taulukkotiedot Heinäkuu 16, 2017
Aika Lämpötila Kastepiste Ilmanpaine Tuuli Tuulen nopeus Tuulenpuuska Kosteus Sademäärä (tunneittain)
-17.8 °C -17.8 °C 0 hPa Calm     Humidity % 0 mm
00:00 -12.3 °C -13.7 °C 34405.1 hPa Calm     84 % 0 mm
00:15 -12.6 °C -13.9 °C 34405.1 hPa Calm     85 % 0 mm
00:30 -12.8 °C -14.1 °C 34405.1 hPa Calm     86 % 0 mm
00:45 -13 °C -13.7 °C 34405.1 hPa Calm     92 % 0 mm
01:00 -13.3 °C -14.3 °C 34418.7 hPa Calm     88 % 0 mm
01:15 -13.4 °C -14.3 °C 34418.7 hPa Calm     90 % 0 mm
01:30 -13.7 °C -14.6 °C 34418.7 hPa Calm     89 % 0 mm
01:45 -13.9 °C -14.8 °C 34418.7 hPa Calm     90 % 0 mm
02:00 -14.1 °C -14.9 °C 34418.7 hPa Calm     91 % 0 mm
02:15 -14.3 °C -15 °C 34418.7 hPa Calm     91 % 0 mm
02:30 -14.3 °C -15 °C 34405.1 hPa Calm     92 % 0 mm
02:45 -14.6 °C -15.2 °C 34418.7 hPa Calm     92 % 0 mm
03:00 -14.6 °C -15.2 °C 34418.7 hPa Calm     93 % 0 mm
03:15 -14.7 °C -15.3 °C 34418.7 hPa Calm     93 % 0 mm
03:30 -14.8 °C -15.4 °C 34418.7 hPa Calm     93 % 0 mm
03:45 -14.9 °C -15.4 °C 34418.7 hPa Calm     93 % 0 mm
04:00 -14.9 °C -15.6 °C 34418.7 hPa Calm     93 % 0 mm
04:15 -15 °C -15.5 °C 34418.7 hPa Calm     94 % 0 mm
04:30 -15.1 °C -15.6 °C 34418.7 hPa Calm     94 % 0 mm
04:45 -15.2 °C -15.7 °C 34418.7 hPa Calm     94 % 0 mm
05:00 -15.1 °C -15.4 °C 34405.1 hPa Calm     95 % 0 mm
05:15 -14.9 °C -15.3 °C 34405.1 hPa Calm     95 % 0 mm
05:30 -14.8 °C -15.2 °C 34405.1 hPa Calm     95 % 0 mm
05:45 -14.8 °C -15.2 °C 34405.1 hPa Calm     95 % 0 mm
06:00 -14.6 °C -14.9 °C 34405.1 hPa Calm   2.6 km/h 96 % 0 mm
06:15 -14.3 °C -14.7 °C 34405.1 hPa Calm     96 % 0 mm
06:30 -14 °C -14.3 °C 34395 hPa Calm   2.6 km/h 96 % 0 mm
06:45 -13.7 °C -14.1 °C 34395 hPa Calm     95 % 0 mm
07:00 -13.3 °C -13.9 °C 34395 hPa Calm     93 % 0 mm
07:15 -12.9 °C -13.7 °C 34395 hPa Calm     91 % 0 mm
07:30 -12.4 °C -13.4 °C 34384.8 hPa Calm   2.6 km/h 89 % 0 mm
07:45 -11.8 °C -13.2 °C 34384.8 hPa Calm   10.3 km/h 85 % 0 mm
08:00 -11.3 °C -12.9 °C 34384.8 hPa Calm   7.7 km/h 82 % 0 mm
08:15 -10.7 °C -12.7 °C 34384.8 hPa Calm   12.9 km/h 79 % 0 mm
08:30 -10.1 °C -12.7 °C 34371.3 hPa SSE 2.6 km/h 15.6 km/h 73 % 0 mm
08:45 -9.5 °C -12.9 °C 34371.3 hPa SSE 5.1 km/h 20.8 km/h 67 % 0 mm
09:00 -8.9 °C -12.7 °C 34361.1 hPa South 5.1 km/h 18.2 km/h 64 % 0 mm
09:15 -8.5 °C -12.6 °C 34361.1 hPa South 7.7 km/h 23.3 km/h 62 % 0 mm
09:30 -8.2 °C -12.7 °C 34361.1 hPa South 5.1 km/h 20.8 km/h 59 % 0 mm
09:45 -7.8 °C -12.2 °C 34347.6 hPa SW 2.6 km/h 20.8 km/h 60 % 0 mm
10:00 -7.6 °C -12.5 °C 34347.6 hPa South 7.7 km/h 23.3 km/h 56 % 0 mm
10:15 -7.3 °C -12.4 °C 34347.6 hPa SSE 7.7 km/h 33.6 km/h 55 % 0 mm
10:30 -7.1 °C -12.2 °C 34337.4 hPa South 10.3 km/h 28.5 km/h 55 % 0 mm
10:45 -6.8 °C -12.2 °C 34337.4 hPa SSW 7.7 km/h 28.5 km/h 54 % 0 mm
11:00 -6.6 °C -11.9 °C 34337.4 hPa South 7.7 km/h 28.5 km/h 54 % 0 mm
11:15 -6.2 °C -11.9 °C 34337.4 hPa South 7.7 km/h 28.5 km/h 52 % 0 mm
11:30 -5.9 °C -11.8 °C 34327.3 hPa South 5.1 km/h 20.8 km/h 51 % 0 mm
11:45 -5.7 °C -12.1 °C 34327.3 hPa South 10.3 km/h 28.5 km/h 48 % 0 mm
12:00 -5.7 °C -11.9 °C 34313.7 hPa SSW 12.9 km/h 25.9 km/h 49 % 0 mm
12:15 -5.6 °C -11.6 °C 34313.7 hPa South 12.9 km/h 36.2 km/h 50 % 0 mm
12:30 -5.6 °C -11.7 °C 34313.7 hPa South 15.6 km/h 41.4 km/h 50 % 0 mm
12:45 -5.6 °C -11.3 °C 34313.7 hPa SSW 12.9 km/h 41.4 km/h 52 % 0 mm
13:00 -5.5 °C -11.2 °C 34303.6 hPa SSW 15.6 km/h 36.2 km/h 52 % 0 mm
13:15 -5.2 °C -11.6 °C 34303.6 hPa SSW 12.9 km/h 36.2 km/h 48 % 0 mm
13:30 -5.2 °C -11.4 °C 34293.4 hPa SSW 12.9 km/h 31.1 km/h 49 % 0 mm
13:45 -4.9 °C -11.6 °C 34293.4 hPa SSW 12.9 km/h 31.1 km/h 47 % 0 mm
14:00 -4.8 °C -11.8 °C 34293.4 hPa SSW 12.9 km/h 28.5 km/h 45 % 0 mm
14:15 -4.8 °C -12.2 °C 34279.9 hPa South 12.9 km/h 33.6 km/h 43 % 0 mm
14:30 -4.9 °C -12.3 °C 34279.9 hPa SSW 12.9 km/h 38.8 km/h 43 % 0 mm
14:45 -4.8 °C -12.4 °C 34269.7 hPa SSW 12.9 km/h 31.1 km/h 42 % 0 mm
15:00 -4.8 °C -12.2 °C 34269.7 hPa SW 10.3 km/h 25.9 km/h 43 % 0 mm
15:15 -4.6 °C -12.6 °C 34256.2 hPa SSW 10.3 km/h 31.1 km/h 40 % 0 mm
15:30 -4.8 °C -12.2 °C 34256.2 hPa SSW 12.9 km/h 28.5 km/h 43 % 0 mm
15:45 -4.6 °C -11.9 °C 34246 hPa SSW 12.9 km/h 36.2 km/h 43 % 0 mm
16:00 -4.6 °C -12.4 °C 34246 hPa SSW 12.9 km/h 36.2 km/h 41 % 0 mm
16:15 -4.8 °C -12.4 °C 34246 hPa SSW 10.3 km/h 33.6 km/h 42 % 0 mm
16:30 -4.8 °C -11.8 °C 34235.8 hPa SSW 12.9 km/h 31.1 km/h 45 % 0 mm
16:45 -4.9 °C -12.2 °C 34235.8 hPa SSW 12.9 km/h 31.1 km/h 44 % 0 mm
17:00 -4.9 °C -12.3 °C 34235.8 hPa SSW 10.3 km/h 28.5 km/h 43 % 0 mm
17:15 -4.9 °C -12.3 °C 34235.8 hPa SSW 12.9 km/h 31.1 km/h 43 % 0 mm
17:30 -4.9 °C -12.4 °C 34235.8 hPa SSW 10.3 km/h 31.1 km/h 42 % 0 mm
17:45 -4.9 °C -12.7 °C 34222.3 hPa SSW 12.9 km/h 38.8 km/h 41 % 0 mm
18:00 -5.1 °C -12.5 °C 34222.3 hPa SSW 12.9 km/h 38.8 km/h 43 % 0 mm
18:15 -5.2 °C -12.6 °C 34212.1 hPa SW 10.3 km/h 23.3 km/h 43 % 0 mm
18:30 -5.5 °C -12.7 °C 34212.1 hPa SSW 10.3 km/h 23.3 km/h 44 % 0 mm
18:45 -5.6 °C -12.1 °C 34212.1 hPa SW 5.1 km/h 20.8 km/h 47 % 0 mm
19:00 -5.8 °C -12.1 °C 34198.6 hPa SSW 7.7 km/h 25.9 km/h 49 % 0 mm
19:15 -6.2 °C -12.7 °C 34198.6 hPa SSW 7.7 km/h 28.5 km/h 47 % 0 mm
19:30 -6.4 °C -12.7 °C 34198.6 hPa SSW 10.3 km/h 33.6 km/h 48 % 0 mm
19:45 -6.4 °C -12.3 °C 34188.4 hPa SSW 5.1 km/h 23.3 km/h 51 % 0 mm
20:00 -6.5 °C -12.3 °C 34188.4 hPa SSW 5.1 km/h 18.2 km/h 51 % 0 mm
20:15 -6.6 °C -12.6 °C 34188.4 hPa SSW 7.7 km/h 28.5 km/h 50 % 0 mm
20:30 -6.7 °C -12.7 °C 34178.3 hPa SSW 7.7 km/h 20.8 km/h 50 % 0 mm
20:45 -6.9 °C -13.3 °C 34178.3 hPa SSW 10.3 km/h 23.3 km/h 47 % 0 mm
21:00 -7.1 °C -13.8 °C 34164.7 hPa SSW 10.3 km/h 28.5 km/h 45 % 0 mm
21:15 -7.2 °C -13.8 °C 34164.7 hPa SW 5.1 km/h 20.8 km/h 46 % 0 mm
21:30 -7.4 °C -13.7 °C 34154.6 hPa SSW 2.6 km/h 10.3 km/h 48 % 0 mm
21:45 -7.6 °C -13.3 °C 34154.6 hPa Calm   7.7 km/h 51 % 0 mm
22:00 -7.7 °C -13.4 °C 34144.4 hPa Calm   10.3 km/h 51 % 0 mm
22:15 -7.8 °C -13.4 °C 34144.4 hPa Calm   5.1 km/h 52 % 0 mm
22:30 -7.9 °C -13.3 °C 34130.9 hPa Calm   7.7 km/h 53 % 0 mm
22:45 -8.2 °C -13.4 °C 34130.9 hPa Calm   7.7 km/h 54 % 0 mm
23:00 -8.4 °C -13.1 °C 34130.9 hPa Calm   5.1 km/h 57 % 0 mm
23:30 -8.6 °C -13.1 °C 34120.7 hPa Calm   5.1 km/h 59 % 0 mm
23:45 -8.7 °C -12.9 °C 34120.7 hPa Calm   2.6 km/h 61 % 0 mm
Esan sääasema
Terveisin Weather Underground - 2.75 mb

Alkuperäinen skripti  Jim McMurry - jmcmurry@mwt.net Sovitettu myös templatelle  Wim van der Kuil - Leuven-Template.eu

Laitteet joita käytämme:

Sääasema
Davis VP2

Sääasemaohjelma
Cumulus

Sääaseman tietokone
Asus EeePC

Palveluntarjoaja
Suncomet

Davis VP2

Cumulus

Asus EeePC

Suncomet